Mc Cleary, Washington
Current Conditions -  °F | °C
As of 2:18 PM on Sunday 23 Nov 2014 (Local Time) from KSHN Reporting Station
Scattered Clouds Scattered Clouds  
Wind Chill: 51°   Ceiling: Unl
Heat Index: 51°   Visibility: 10mi
Dew Point: 42°   Wind: 14mph
Humidity: 71%   Direction: 260°W
Pressure: 30.16"   Gusts: 21mph
Location:  47.0427°N, 123.269°W
Report Text: KSHN 232218Z AUTO 26012G18KT 10SM SCT031 11/06 A3016 RMK AO2 RAB2158E08 P0000 T01060056
Loading
Personal Weather Stations






























Interactive Weather Map New forecast layout! Learn more

10-Day Weather Forecast

Advertisements
Track Severe Weather on mobile